sensor_id;sensor_type;location;lat;lon;timestamp;P1;durP1;ratioP1;P2;durP2;ratioP2
38557;SDS011;24333;42.626;23.308;2022-08-19T00:02:35;9.40;;;5.50;;
38557;SDS011;24333;42.626;23.308;2022-08-19T00:05:01;7.97;;;5.18;;
38557;SDS011;24333;42.626;23.308;2022-08-19T00:07:28;13.27;;;5.15;;
38557;SDS011;24333;42.626;23.308;2022-08-19T00:09:54;7.40;;;5.32;;
38557;SDS011;24333;42.626;23.308;2022-08-19T00:12:21;7.43;;;5.15;;
38557;SDS011;24333;42.626;23.308;2022-08-19T00:14:48;6.20;;;5.10;;
38557;SDS011;24333;42.626;23.308;2022-08-19T00:32:45;10.23;;;5.13;;
38557;SDS011;24333;42.626;23.308;2022-08-19T00:35:11;6.95;;;4.80;;
38557;SDS011;24333;42.626;23.308;2022-08-19T00:37:36;8.05;;;4.82;;
38557;SDS011;24333;42.626;23.308;2022-08-19T00:40:04;7.15;;;4.97;;
38557;SDS011;24333;42.626;23.308;2022-08-19T00:42:30;6.13;;;4.68;;
38557;SDS011;24333;42.626;23.308;2022-08-19T01:08:15;8.20;;;5.88;;
38557;SDS011;24333;42.626;23.308;2022-08-19T01:13:19;7.45;;;4.63;;
38557;SDS011;24333;42.626;23.308;2022-08-19T01:18:41;8.90;;;4.95;;
38557;SDS011;24333;42.626;23.308;2022-08-19T01:21:22;8.48;;;4.95;;
38557;SDS011;24333;42.626;23.308;2022-08-19T01:24:20;6.70;;;5.35;;
38557;SDS011;24333;42.626;23.308;2022-08-19T06:29:43;14.90;;;7.25;;
38557;SDS011;24333;42.626;23.308;2022-08-19T06:32:13;15.20;;;6.90;;
38557;SDS011;24333;42.626;23.308;2022-08-19T06:34:41;13.20;;;6.70;;
38557;SDS011;24333;42.626;23.308;2022-08-19T07:23:41;16.35;;;8.05;;
38557;SDS011;24333;42.626;23.308;2022-08-19T07:31:18;19.08;;;7.30;;
38557;SDS011;24333;42.626;23.308;2022-08-19T07:33:46;17.58;;;7.60;;
38557;SDS011;24333;42.626;23.308;2022-08-19T07:38:49;24.83;;;8.00;;
38557;SDS011;24333;42.626;23.308;2022-08-19T07:41:18;18.95;;;7.40;;
38557;SDS011;24333;42.626;23.308;2022-08-19T07:43:46;18.88;;;7.93;;
38557;SDS011;24333;42.626;23.308;2022-08-19T07:48:57;28.75;;;8.23;;
38557;SDS011;24333;42.626;23.308;2022-08-19T07:54:24;17.38;;;7.10;;
38557;SDS011;24333;42.626;23.308;2022-08-19T07:56:52;19.83;;;7.80;;
38557;SDS011;24333;42.626;23.308;2022-08-19T07:59:19;22.67;;;8.95;;
38557;SDS011;24333;42.626;23.308;2022-08-19T08:28:53;17.85;;;6.28;;
38557;SDS011;24333;42.626;23.308;2022-08-19T08:55:25;10.60;;;4.85;;
38557;SDS011;24333;42.626;23.308;2022-08-19T08:58:30;12.45;;;5.05;;
38557;SDS011;24333;42.626;23.308;2022-08-19T09:04:05;7.47;;;4.20;;
38557;SDS011;24333;42.626;23.308;2022-08-19T09:09:40;10.48;;;5.22;;
38557;SDS011;24333;42.626;23.308;2022-08-19T09:12:21;11.70;;;4.90;;
38557;SDS011;24333;42.626;23.308;2022-08-19T09:14:49;5.30;;;3.97;;
38557;SDS011;24333;42.626;23.308;2022-08-19T09:17:27;12.85;;;5.10;;
38557;SDS011;24333;42.626;23.308;2022-08-19T09:22:50;8.65;;;5.32;;
38557;SDS011;24333;42.626;23.308;2022-08-19T09:25:17;8.20;;;4.68;;
38557;SDS011;24333;42.626;23.308;2022-08-19T09:27:46;8.48;;;4.53;;
38557;SDS011;24333;42.626;23.308;2022-08-19T09:30:17;13.27;;;4.80;;
38557;SDS011;24333;42.626;23.308;2022-08-19T09:32:53;10.68;;;5.13;;
38557;SDS011;24333;42.626;23.308;2022-08-19T09:35:21;5.95;;;4.45;;
38557;SDS011;24333;42.626;23.308;2022-08-19T09:37:48;8.45;;;4.80;;
38557;SDS011;24333;42.626;23.308;2022-08-19T09:40:15;10.05;;;4.60;;
38557;SDS011;24333;42.626;23.308;2022-08-19T09:42:42;11.57;;;5.05;;
38557;SDS011;24333;42.626;23.308;2022-08-19T09:45:18;9.15;;;4.57;;
38557;SDS011;24333;42.626;23.308;2022-08-19T09:47:46;8.93;;;4.57;;
38557;SDS011;24333;42.626;23.308;2022-08-19T09:50:12;14.00;;;4.43;;
38557;SDS011;24333;42.626;23.308;2022-08-19T09:52:38;7.07;;;4.43;;
38557;SDS011;24333;42.626;23.308;2022-08-19T09:55:05;6.78;;;4.10;;
38557;SDS011;24333;42.626;23.308;2022-08-19T09:57:32;6.55;;;4.05;;
38557;SDS011;24333;42.626;23.308;2022-08-19T09:59:58;8.77;;;4.15;;
38557;SDS011;24333;42.626;23.308;2022-08-19T10:02:24;7.93;;;3.72;;
38557;SDS011;24333;42.626;23.308;2022-08-19T10:04:50;8.45;;;4.07;;
38557;SDS011;24333;42.626;23.308;2022-08-19T10:07:34;10.88;;;3.80;;
38557;SDS011;24333;42.626;23.308;2022-08-19T10:10:00;6.78;;;4.03;;
38557;SDS011;24333;42.626;23.308;2022-08-19T10:12:25;5.53;;;3.72;;
38557;SDS011;24333;42.626;23.308;2022-08-19T10:14:51;6.78;;;3.88;;
38557;SDS011;24333;42.626;23.308;2022-08-19T10:17:18;9.05;;;3.80;;
38557;SDS011;24333;42.626;23.308;2022-08-19T10:19:44;13.13;;;4.10;;
38557;SDS011;24333;42.626;23.308;2022-08-19T10:22:09;15.55;;;4.20;;
38557;SDS011;24333;42.626;23.308;2022-08-19T10:24:39;7.82;;;4.30;;
38557;SDS011;24333;42.626;23.308;2022-08-19T10:27:05;11.35;;;4.63;;
38557;SDS011;24333;42.626;23.308;2022-08-19T10:29:31;9.35;;;4.25;;
38557;SDS011;24333;42.626;23.308;2022-08-19T10:32:00;10.13;;;5.30;;
38557;SDS011;24333;42.626;23.308;2022-08-19T10:34:26;9.38;;;4.35;;
38557;SDS011;24333;42.626;23.308;2022-08-19T10:36:53;12.93;;;4.70;;
38557;SDS011;24333;42.626;23.308;2022-08-19T10:39:18;7.50;;;4.63;;
38557;SDS011;24333;42.626;23.308;2022-08-19T10:41:44;12.13;;;4.72;;
38557;SDS011;24333;42.626;23.308;2022-08-19T10:44:10;7.75;;;4.75;;
38557;SDS011;24333;42.626;23.308;2022-08-19T10:46:39;11.02;;;4.53;;
38557;SDS011;24333;42.626;23.308;2022-08-19T11:04:37;8.18;;;4.45;;
38557;SDS011;24333;42.626;23.308;2022-08-19T11:07:04;12.05;;;4.88;;
38557;SDS011;24333;42.626;23.308;2022-08-19T11:09:31;8.18;;;4.70;;
38557;SDS011;24333;42.626;23.308;2022-08-19T11:12:00;10.38;;;5.15;;
38557;SDS011;24333;42.626;23.308;2022-08-19T11:14:26;13.77;;;4.93;;
38557;SDS011;24333;42.626;23.308;2022-08-19T11:16:55;8.10;;;4.80;;
38557;SDS011;24333;42.626;23.308;2022-08-19T11:19:22;13.25;;;4.82;;
38557;SDS011;24333;42.626;23.308;2022-08-19T11:21:48;11.35;;;5.32;;
38557;SDS011;24333;42.626;23.308;2022-08-19T11:24:19;10.75;;;4.70;;
38557;SDS011;24333;42.626;23.308;2022-08-19T11:26:46;6.05;;;4.68;;
38557;SDS011;24333;42.626;23.308;2022-08-19T11:29:14;7.38;;;4.05;;
38557;SDS011;24333;42.626;23.308;2022-08-19T11:31:43;6.22;;;4.40;;
38557;SDS011;24333;42.626;23.308;2022-08-19T11:34:11;9.98;;;4.90;;
38557;SDS011;24333;42.626;23.308;2022-08-19T11:36:38;6.05;;;4.13;;
38557;SDS011;24333;42.626;23.308;2022-08-19T11:39:07;7.28;;;4.20;;
38557;SDS011;24333;42.626;23.308;2022-08-19T11:41:34;6.32;;;4.57;;
38557;SDS011;24333;42.626;23.308;2022-08-19T11:44:00;6.78;;;4.75;;
38557;SDS011;24333;42.626;23.308;2022-08-19T11:46:27;9.30;;;4.90;;
38557;SDS011;24333;42.626;23.308;2022-08-19T11:48:56;6.82;;;4.72;;
38557;SDS011;24333;42.626;23.308;2022-08-19T11:51:24;8.60;;;4.82;;
38557;SDS011;24333;42.626;23.308;2022-08-19T11:53:51;6.13;;;4.88;;
38557;SDS011;24333;42.626;23.308;2022-08-19T11:56:18;9.35;;;5.03;;
38557;SDS011;24333;42.626;23.308;2022-08-19T11:58:43;7.95;;;4.90;;
38557;SDS011;24333;42.626;23.308;2022-08-19T12:01:19;7.88;;;4.78;;
38557;SDS011;24333;42.626;23.308;2022-08-19T12:03:47;9.85;;;4.97;;
38557;SDS011;24333;42.626;23.308;2022-08-19T12:06:19;11.60;;;4.88;;
38557;SDS011;24333;42.626;23.308;2022-08-19T12:08:48;15.95;;;5.05;;
38557;SDS011;24333;42.626;23.308;2022-08-19T12:11:14;9.80;;;5.15;;
38557;SDS011;24333;42.626;23.308;2022-08-19T12:13:39;10.52;;;5.40;;
38557;SDS011;24333;42.626;23.308;2022-08-19T12:16:09;9.02;;;4.80;;
38557;SDS011;24333;42.626;23.308;2022-08-19T12:18:37;7.10;;;4.85;;
38557;SDS011;24333;42.626;23.308;2022-08-19T12:21:04;9.40;;;5.05;;
38557;SDS011;24333;42.626;23.308;2022-08-19T12:23:29;17.77;;;5.05;;
38557;SDS011;24333;42.626;23.308;2022-08-19T12:25:55;10.35;;;4.82;;
38557;SDS011;24333;42.626;23.308;2022-08-19T12:28:22;9.27;;;4.93;;
38557;SDS011;24333;42.626;23.308;2022-08-19T12:30:49;11.45;;;5.05;;
38557;SDS011;24333;42.626;23.308;2022-08-19T12:33:16;11.05;;;4.80;;
38557;SDS011;24333;42.626;23.308;2022-08-19T12:35:42;9.43;;;4.85;;
38557;SDS011;24333;42.626;23.308;2022-08-19T12:38:10;8.82;;;4.57;;
38557;SDS011;24333;42.626;23.308;2022-08-19T12:40:36;9.40;;;4.93;;
38557;SDS011;24333;42.626;23.308;2022-08-19T12:43:04;9.77;;;4.93;;
38557;SDS011;24333;42.626;23.308;2022-08-19T12:45:31;9.63;;;5.35;;
38557;SDS011;24333;42.626;23.308;2022-08-19T13:02:22;11.55;;;6.53;;
38557;SDS011;24333;42.626;23.308;2022-08-19T13:04:48;11.95;;;6.35;;
38557;SDS011;24333;42.626;23.308;2022-08-19T13:07:13;11.18;;;5.03;;
38557;SDS011;24333;42.626;23.308;2022-08-19T13:09:39;7.38;;;4.80;;
38557;SDS011;24333;42.626;23.308;2022-08-19T13:12:07;9.32;;;5.20;;
38557;SDS011;24333;42.626;23.308;2022-08-19T13:14:37;5.03;;;4.53;;
38557;SDS011;24333;42.626;23.308;2022-08-19T13:17:05;7.05;;;4.55;;
38557;SDS011;24333;42.626;23.308;2022-08-19T13:19:30;7.88;;;4.65;;
38557;SDS011;24333;42.626;23.308;2022-08-19T13:21:56;10.88;;;4.90;;
38557;SDS011;24333;42.626;23.308;2022-08-19T13:24:22;9.40;;;4.95;;
38557;SDS011;24333;42.626;23.308;2022-08-19T13:26:48;9.00;;;5.22;;
38557;SDS011;24333;42.626;23.308;2022-08-19T13:29:13;10.00;;;5.63;;
38557;SDS011;24333;42.626;23.308;2022-08-19T13:31:57;8.88;;;5.40;;
38557;SDS011;24333;42.626;23.308;2022-08-19T13:34:41;11.90;;;5.78;;
38557;SDS011;24333;42.626;23.308;2022-08-19T13:37:07;6.45;;;4.57;;
38557;SDS011;24333;42.626;23.308;2022-08-19T13:39:32;8.45;;;4.93;;
38557;SDS011;24333;42.626;23.308;2022-08-19T13:41:59;10.30;;;4.80;;
38557;SDS011;24333;42.626;23.308;2022-08-19T13:44:25;11.30;;;4.97;;
38557;SDS011;24333;42.626;23.308;2022-08-19T13:46:54;10.65;;;5.05;;
38557;SDS011;24333;42.626;23.308;2022-08-19T13:49:20;11.00;;;5.40;;
38557;SDS011;24333;42.626;23.308;2022-08-19T13:51:46;11.60;;;4.90;;
38557;SDS011;24333;42.626;23.308;2022-08-19T13:54:11;7.75;;;4.40;;
38557;SDS011;24333;42.626;23.308;2022-08-19T13:56:44;6.72;;;4.82;;
38557;SDS011;24333;42.626;23.308;2022-08-19T13:59:10;8.52;;;4.68;;
38557;SDS011;24333;42.626;23.308;2022-08-19T14:01:37;16.92;;;5.10;;
38557;SDS011;24333;42.626;23.308;2022-08-19T14:04:03;7.65;;;4.68;;
38557;SDS011;24333;42.626;23.308;2022-08-19T14:06:30;11.27;;;5.22;;
38557;SDS011;24333;42.626;23.308;2022-08-19T14:08:55;8.02;;;5.00;;
38557;SDS011;24333;42.626;23.308;2022-08-19T14:11:20;8.63;;;5.28;;
38557;SDS011;24333;42.626;23.308;2022-08-19T14:13:48;10.13;;;4.90;;
38557;SDS011;24333;42.626;23.308;2022-08-19T14:16:13;8.52;;;4.80;;
38557;SDS011;24333;42.626;23.308;2022-08-19T14:18:39;9.93;;;5.00;;
38557;SDS011;24333;42.626;23.308;2022-08-19T14:24:01;14.95;;;5.50;;
38557;SDS011;24333;42.626;23.308;2022-08-19T14:26:26;12.95;;;4.50;;
38557;SDS011;24333;42.626;23.308;2022-08-19T14:28:52;6.57;;;4.80;;
38557;SDS011;24333;42.626;23.308;2022-08-19T14:31:17;11.75;;;4.85;;
38557;SDS011;24333;42.626;23.308;2022-08-19T14:37:05;6.28;;;4.63;;
38557;SDS011;24333;42.626;23.308;2022-08-19T14:39:31;15.85;;;5.10;;
38557;SDS011;24333;42.626;23.308;2022-08-19T14:41:56;11.10;;;4.88;;
38557;SDS011;24333;42.626;23.308;2022-08-19T14:44:22;7.95;;;4.80;;
38557;SDS011;24333;42.626;23.308;2022-08-19T14:46:47;11.02;;;5.28;;
38557;SDS011;24333;42.626;23.308;2022-08-19T14:49:13;10.90;;;5.28;;
38557;SDS011;24333;42.626;23.308;2022-08-19T14:51:38;6.75;;;4.88;;
38557;SDS011;24333;42.626;23.308;2022-08-19T14:54:03;7.78;;;4.78;;
38557;SDS011;24333;42.626;23.308;2022-08-19T14:56:29;18.05;;;5.38;;
38557;SDS011;24333;42.626;23.308;2022-08-19T14:58:55;9.55;;;4.97;;
38557;SDS011;24333;42.626;23.308;2022-08-19T15:01:24;8.00;;;4.95;;
38557;SDS011;24333;42.626;23.308;2022-08-19T15:03:51;8.05;;;4.65;;
38557;SDS011;24333;42.626;23.308;2022-08-19T15:06:18;13.52;;;4.93;;
38557;SDS011;24333;42.626;23.308;2022-08-19T15:08:44;14.75;;;5.47;;
38557;SDS011;24333;42.626;23.308;2022-08-19T15:11:11;8.43;;;5.00;;
38557;SDS011;24333;42.626;23.308;2022-08-19T15:13:39;10.20;;;4.80;;
38557;SDS011;24333;42.626;23.308;2022-08-19T15:16:05;9.18;;;5.38;;
38557;SDS011;24333;42.626;23.308;2022-08-19T15:18:31;14.10;;;5.10;;
38557;SDS011;24333;42.626;23.308;2022-08-19T15:36:24;13.50;;;7.10;;
38557;SDS011;24333;42.626;23.308;2022-08-19T15:38:50;19.33;;;8.55;;
38557;SDS011;24333;42.626;23.308;2022-08-19T15:41:18;12.07;;;7.28;;
38557;SDS011;24333;42.626;23.308;2022-08-19T15:43:55;18.27;;;9.93;;
38557;SDS011;24333;42.626;23.308;2022-08-19T15:46:26;17.27;;;11.75;;
38557;SDS011;24333;42.626;23.308;2022-08-19T15:48:53;17.90;;;8.95;;
38557;SDS011;24333;42.626;23.308;2022-08-19T15:51:20;11.40;;;7.45;;
38557;SDS011;24333;42.626;23.308;2022-08-19T15:53:46;15.20;;;6.90;;
38557;SDS011;24333;42.626;23.308;2022-08-19T15:56:12;11.50;;;6.15;;
38557;SDS011;24333;42.626;23.308;2022-08-19T15:58:38;9.77;;;5.90;;
38557;SDS011;24333;42.626;23.308;2022-08-19T16:01:22;8.32;;;6.05;;
38557;SDS011;24333;42.626;23.308;2022-08-19T16:04:06;12.85;;;6.25;;
38557;SDS011;24333;42.626;23.308;2022-08-19T16:53:30;15.13;;;7.20;;
38557;SDS011;24333;42.626;23.308;2022-08-19T16:55:55;16.80;;;7.50;;
38557;SDS011;24333;42.626;23.308;2022-08-19T16:58:22;15.48;;;7.55;;
38557;SDS011;24333;42.626;23.308;2022-08-19T17:00:50;11.88;;;7.22;;
38557;SDS011;24333;42.626;23.308;2022-08-19T17:03:16;16.30;;;7.55;;
38557;SDS011;24333;42.626;23.308;2022-08-19T17:27:50;18.63;;;11.25;;
38557;SDS011;24333;42.626;23.308;2022-08-19T17:30:17;30.15;;;17.45;;
38557;SDS011;24333;42.626;23.308;2022-08-19T17:32:43;39.38;;;21.60;;
38557;SDS011;24333;42.626;23.308;2022-08-19T18:11:26;16.17;;;9.32;;
38557;SDS011;24333;42.626;23.308;2022-08-19T18:13:51;16.85;;;8.80;;
38557;SDS011;24333;42.626;23.308;2022-08-19T18:16:17;16.50;;;6.20;;
38557;SDS011;24333;42.626;23.308;2022-08-19T18:18:44;13.18;;;7.53;;
38557;SDS011;24333;42.626;23.308;2022-08-19T18:21:10;18.88;;;9.98;;
38557;SDS011;24333;42.626;23.308;2022-08-19T18:23:36;11.98;;;7.93;;
38557;SDS011;24333;42.626;23.308;2022-08-19T18:29:24;15.23;;;8.15;;
38557;SDS011;24333;42.626;23.308;2022-08-19T18:31:49;11.13;;;6.15;;
38557;SDS011;24333;42.626;23.308;2022-08-19T22:30:04;7.50;;;5.63;;
38557;SDS011;24333;42.626;23.308;2022-08-19T22:32:32;8.02;;;5.63;;
38557;SDS011;24333;42.626;23.308;2022-08-19T22:35:05;9.40;;;5.45;;
38557;SDS011;24333;42.626;23.308;2022-08-19T22:37:39;9.48;;;5.90;;
38557;SDS011;24333;42.626;23.308;2022-08-19T22:40:12;8.88;;;5.60;;
38557;SDS011;24333;42.626;23.308;2022-08-19T22:42:40;11.55;;;5.57;;
38557;SDS011;24333;42.626;23.308;2022-08-19T22:45:07;7.22;;;4.80;;
38557;SDS011;24333;42.626;23.308;2022-08-19T22:47:36;10.68;;;5.80;;
38557;SDS011;24333;42.626;23.308;2022-08-19T22:50:04;12.18;;;5.70;;
38557;SDS011;24333;42.626;23.308;2022-08-19T22:52:31;8.40;;;5.40;;
